Fort Wayne International Airport
KFWA : now visible

Airfield :











YOU CAN JOIN US ON...

 
LOGIN :

Register | Disclaimer

   EN    FR    IT 

 









Legend :    VFR   Marginal VFR   IFR   Intensive IFR   Very Intensive IFR
Visi :
Ceiling :
>= 8 km
>= 3000ft
5 to 8 km
1000 to 3000 ft
1500m to 5 km
500 to 1000 ft
800 to 1500m
200 to 500 ft
< 800m
< 200 ft
Symbols :   Thunderstorms  Fog  Heavy snow  Heavy precipitations  Wind > 20 kt






- Airport Elevation : 814 ft
- IATA code : FWA


KFWA - Fort Wayne International

CURRENT METAR :
  • 192054Z 05005KT 10SM OVC010 08/07 A3015 RMK AO2 SLP213 60000 T00830067 55015

EXPIRED METARs :
  • 191954Z 06007KT 10SM OVC010 08/07 A3015 RMK AO2 DZE06 SLP213 P0000 T00830067
  • 191854Z 07007KT 10SM -DZ BKN010 OVC050 08/06 A3015 RMK AO2 SLP215 P0000 T00780061
  • 191842Z 06010KT 7SM -DZ FEW010 SCT025 OVC048 08/06 A3016 RMK AO2 P0000 T00780061
  • 191830Z 06008KT 8SM -DZ SCT010 BKN025 OVC037 08/06 A3017 RMK AO2 P0000 T00780061

TAF KFWA
Valid from the 19 at 18:00 until the 20 at 18:00 UTC


191756Z 1918/2018 04007KT P6SM VCSH OVC030
FM200000 03006KT P6SM VCSH OVC019
FM200100 03006KT P6SM VCSH OVC021
FM200200 04007KT P6SM VCSH OVC019
FM201500 06008KT P6SM BKN019
KZAU FIR / North America



MET'MAP, your aeronautical weather chart ! - Copyright ORBIFLY December 2007 - Disclaimer

ORBIFLY MET'MAP TEAM :

Programming & Development : Alexandra Zaïnal
Concept & original design : Baudouin d'Aumeries
Assistance for programming : Marc-Olivier Méhu
Technical & hardware support : Manuel Goepfert

Contact : metmap@orbifly.com




SOURCES & CREDITS :

   NOAA       Earth
Advisory